Chapman, KS (67431)

10:22 AM CDT on September 19, 2017 (GMT -0500)
Pearl | | Change Station
Active Advisory: Wind Advisory

Elev 1299 ft 38.84 °N, 97.03 °W | Updated 12 seconds ago

Clear
Clear
84.6 °F
Feels Like 88 °F
N
17.0
Wind Variable Wind from SSE

Today
High -- | Low -- °F
--% Chance of Precip.
Yesterday
High -- | Low -- °F
Precip. -- in
Pressure 29.75 in
Visibility 10.0 miles
Clouds Few 6000 ft
Heat Index 88 °F
Dew Point 68 °F
Humidity 58%
Rainfall 0.00 in
Snow Depth Not available.
7:13 AM 7:29 PM
Waning Crescent, 0% visible
METAR KFRI 191444Z 17010G15KT 10SM FEW060 27/17 A2980 RMK SLP075 WND DATA ESTMD ALSTG/SLP ESTMD 58008
Pressure 29.75 in
Visibility 10.0 miles
Clouds Few 6000 ft
Heat Index 88 °F
Dew Point 68 °F
Humidity 58%
Rainfall 0.00 in
Snow Depth Not available.
7:13 AM 7:29 PM
Waning Crescent, 0% visible
METAR KFRI 191444Z 17010G15KT 10SM FEW060 27/17 A2980 RMK SLP075 WND DATA ESTMD ALSTG/SLP ESTMD 58008

Get Your Daily Forecast Email!

Thanks for signing up!

Be on the lookout for a verification email in your inbox.

You'll start receiving severe weather alerts in your inbox..

×

10-Day Weather Forecast

Almanac

Astronomy

Sep. 19, 2017 Rise Set
Actual Time
Civil Twilight
Nautical Twilight
Astronomical Twilight
Moon
Length of Visible Light
Length of Day
Tomorrow will be .
, % of the Moon is Illuminated

Today's Extremes

State Highs State Lows

Community

WunderPhotos

Category 6

Welcome to Category 6. This is the collective home for Weather Underground's featured writeups by Dr. Jeff Masters (right), Bob Henson (left), Chris Burt, and other regular contributors.

Nearby

Air Quality

  Air Quality AQ Index Pollutant
Not available.

Snow Depth

Station Depth Elevation

Earthquake Activity

City Distance Mag. Time & Date
Minimum magnitude displayed is 2.5.

Coastal Water Temperatures

Place Temperature

Stations

Nearby Weather Stations

Station Location Temp. Windchill Dew Point Humidity Wind Precip. Elev Updated Type
                   

Watches & Warnings

Wind Advisory
Issued: 3:21 AM CDT Sep. 19, 2017 – National Weather Service

... Wind Advisory in effect from 1 PM this afternoon to 7 PM CDT
this evening...

The National Weather Service in Topeka has issued a Wind
Advisory, which is in effect from 1 PM this afternoon to 7 PM CDT
this evening.

* Timing... gusty winds will increase by early afternoon and peak
during the afternoon hours. Winds will begin to subside after
sunset.

* Winds... south to southeast winds 25 to 30 mph sustained with
gusts up from 35 to 45 mph.

Precautionary/preparedness actions...

A Wind Advisory means that sustained winds of 30 mph or gusts to
45 mph are expected. Steps should be taken to secure any lawn
furniture or light weight objects and use extra caution when
driving.